sensor_id;sensor_type;location;lat;lon;timestamp;P1;durP1;ratioP1;P2;durP2;ratioP2
61373;SDS011;47242;48.158;-1.586;2024-01-30T05:32:07;0.10;;;0.10;;
61373;SDS011;47242;48.158;-1.586;2024-01-30T05:34:33;0.10;;;0.10;;
61373;SDS011;47242;48.158;-1.586;2024-01-30T05:36:59;0.10;;;0.10;;
61373;SDS011;47242;48.158;-1.586;2024-01-30T05:39:24;0.10;;;0.10;;
61373;SDS011;47242;48.158;-1.586;2024-01-30T05:41:50;0.10;;;0.10;;
61373;SDS011;47242;48.158;-1.586;2024-01-30T05:44:16;0.10;;;0.10;;
61373;SDS011;47242;48.158;-1.586;2024-01-30T05:46:41;0.10;;;0.10;;
61373;SDS011;47242;48.158;-1.586;2024-01-30T05:49:07;0.00;;;0.00;;
61373;SDS011;47242;48.158;-1.586;2024-01-30T05:51:33;0.10;;;0.10;;
61373;SDS011;47242;48.158;-1.586;2024-01-30T05:53:58;0.10;;;0.10;;
61373;SDS011;47242;48.158;-1.586;2024-01-30T05:56:24;0.10;;;0.10;;
61373;SDS011;47242;48.158;-1.586;2024-01-30T05:58:49;0.10;;;0.10;;
61373;SDS011;47242;48.158;-1.586;2024-01-30T06:01:16;0.10;;;0.10;;
61373;SDS011;47242;48.158;-1.586;2024-01-30T06:03:41;0.10;;;0.10;;
61373;SDS011;47242;48.158;-1.586;2024-01-30T06:06:08;0.03;;;0.03;;
61373;SDS011;47242;48.158;-1.586;2024-01-30T06:08:34;0.10;;;0.10;;
61373;SDS011;47242;48.158;-1.586;2024-01-30T06:11:00;0.10;;;0.10;;
61373;SDS011;47242;48.158;-1.586;2024-01-30T06:13:26;0.10;;;0.10;;
61373;SDS011;47242;48.158;-1.586;2024-01-30T06:15:52;0.10;;;0.10;;
61373;SDS011;47242;48.158;-1.586;2024-01-30T06:18:17;0.10;;;0.10;;
61373;SDS011;47242;48.158;-1.586;2024-01-30T06:20:43;0.10;;;0.10;;
61373;SDS011;47242;48.158;-1.586;2024-01-30T06:23:09;0.10;;;0.10;;
61373;SDS011;47242;48.158;-1.586;2024-01-30T06:25:35;0.10;;;0.10;;
61373;SDS011;47242;48.158;-1.586;2024-01-30T06:28:00;0.10;;;0.10;;
61373;SDS011;47242;48.158;-1.586;2024-01-30T06:30:26;0.10;;;0.10;;
61373;SDS011;47242;48.158;-1.586;2024-01-30T06:32:52;0.10;;;0.10;;
61373;SDS011;47242;48.158;-1.586;2024-01-30T06:35:17;0.10;;;0.10;;
61373;SDS011;47242;48.158;-1.586;2024-01-30T06:37:43;0.10;;;0.10;;
61373;SDS011;47242;48.158;-1.586;2024-01-30T06:40:09;0.10;;;0.10;;
61373;SDS011;47242;48.158;-1.586;2024-01-30T06:42:35;0.10;;;0.10;;
61373;SDS011;47242;48.158;-1.586;2024-01-30T06:45:00;0.10;;;0.10;;
61373;SDS011;47242;48.158;-1.586;2024-01-30T06:47:26;0.10;;;0.10;;
61373;SDS011;47242;48.158;-1.586;2024-01-30T06:49:52;0.10;;;0.10;;
61373;SDS011;47242;48.158;-1.586;2024-01-30T06:52:18;0.10;;;0.10;;
61373;SDS011;47242;48.158;-1.586;2024-01-30T06:54:43;0.10;;;0.10;;
61373;SDS011;47242;48.158;-1.586;2024-01-30T06:57:09;0.10;;;0.10;;
61373;SDS011;47242;48.158;-1.586;2024-01-30T06:59:37;0.10;;;0.10;;
61373;SDS011;47242;48.158;-1.586;2024-01-30T07:02:08;0.10;;;0.10;;
61373;SDS011;47242;48.158;-1.586;2024-01-30T07:04:34;0.10;;;0.10;;
61373;SDS011;47242;48.158;-1.586;2024-01-30T07:07:02;0.10;;;0.10;;
61373;SDS011;47242;48.158;-1.586;2024-01-30T07:09:29;0.10;;;0.10;;
61373;SDS011;47242;48.158;-1.586;2024-01-30T07:11:55;0.10;;;0.10;;
61373;SDS011;47242;48.158;-1.586;2024-01-30T07:14:23;0.10;;;0.10;;
61373;SDS011;47242;48.158;-1.586;2024-01-30T07:16:49;0.10;;;0.10;;
61373;SDS011;47242;48.158;-1.586;2024-01-30T07:19:15;0.10;;;0.10;;
61373;SDS011;47242;48.158;-1.586;2024-01-30T07:21:41;0.10;;;0.10;;
61373;SDS011;47242;48.158;-1.586;2024-01-30T07:24:07;0.10;;;0.10;;
61373;SDS011;47242;48.158;-1.586;2024-01-30T07:26:32;0.10;;;0.10;;
61373;SDS011;47242;48.158;-1.586;2024-01-30T07:28:58;0.10;;;0.10;;
61373;SDS011;47242;48.158;-1.586;2024-01-30T07:31:24;0.10;;;0.10;;
61373;SDS011;47242;48.158;-1.586;2024-01-30T07:33:49;0.10;;;0.10;;
61373;SDS011;47242;48.158;-1.586;2024-01-30T07:36:15;0.10;;;0.10;;
61373;SDS011;47242;48.158;-1.586;2024-01-30T07:38:40;0.10;;;0.10;;
61373;SDS011;47242;48.158;-1.586;2024-01-30T07:41:06;0.10;;;0.10;;
61373;SDS011;47242;48.158;-1.586;2024-01-30T07:43:35;0.10;;;0.10;;
61373;SDS011;47242;48.158;-1.586;2024-01-30T07:46:01;0.10;;;0.10;;
61373;SDS011;47242;48.158;-1.586;2024-01-30T07:48:28;0.10;;;0.10;;
61373;SDS011;47242;48.158;-1.586;2024-01-30T07:50:53;0.10;;;0.10;;
61373;SDS011;47242;48.158;-1.586;2024-01-30T07:53:19;0.10;;;0.10;;
61373;SDS011;47242;48.158;-1.586;2024-01-30T07:55:45;0.10;;;0.10;;
61373;SDS011;47242;48.158;-1.586;2024-01-30T07:58:11;0.10;;;0.10;;
61373;SDS011;47242;48.158;-1.586;2024-01-30T08:00:37;0.10;;;0.10;;
61373;SDS011;47242;48.158;-1.586;2024-01-30T08:03:03;0.10;;;0.10;;
61373;SDS011;47242;48.158;-1.586;2024-01-30T08:05:29;0.10;;;0.10;;
61373;SDS011;47242;48.158;-1.586;2024-01-30T08:07:55;0.03;;;0.03;;
61373;SDS011;47242;48.158;-1.586;2024-01-30T08:10:21;0.10;;;0.10;;
61373;SDS011;47242;48.158;-1.586;2024-01-30T08:12:47;0.10;;;0.10;;
61373;SDS011;47242;48.158;-1.586;2024-01-30T08:15:12;0.10;;;0.10;;
61373;SDS011;47242;48.158;-1.586;2024-01-30T08:17:38;0.10;;;0.10;;
61373;SDS011;47242;48.158;-1.586;2024-01-30T08:20:04;0.10;;;0.10;;
61373;SDS011;47242;48.158;-1.586;2024-01-30T08:22:31;0.10;;;0.10;;
61373;SDS011;47242;48.158;-1.586;2024-01-30T08:24:56;0.10;;;0.10;;
61373;SDS011;47242;48.158;-1.586;2024-01-30T08:27:22;0.10;;;0.10;;
61373;SDS011;47242;48.158;-1.586;2024-01-30T08:29:48;0.10;;;0.10;;
61373;SDS011;47242;48.158;-1.586;2024-01-30T08:32:15;0.10;;;0.10;;
61373;SDS011;47242;48.158;-1.586;2024-01-30T08:34:40;0.10;;;0.10;;
61373;SDS011;47242;48.158;-1.586;2024-01-30T08:37:06;0.10;;;0.10;;
61373;SDS011;47242;48.158;-1.586;2024-01-30T08:39:32;0.10;;;0.10;;
61373;SDS011;47242;48.158;-1.586;2024-01-30T08:41:57;0.10;;;0.10;;
61373;SDS011;47242;48.158;-1.586;2024-01-30T08:44:23;0.10;;;0.10;;
61373;SDS011;47242;48.158;-1.586;2024-01-30T08:46:48;0.10;;;0.10;;
61373;SDS011;47242;48.158;-1.586;2024-01-30T08:49:16;0.10;;;0.10;;
61373;SDS011;47242;48.158;-1.586;2024-01-30T08:51:41;0.10;;;0.10;;
61373;SDS011;47242;48.158;-1.586;2024-01-30T08:54:07;0.10;;;0.10;;
61373;SDS011;47242;48.158;-1.586;2024-01-30T08:56:33;0.10;;;0.10;;
61373;SDS011;47242;48.158;-1.586;2024-01-30T08:58:58;0.10;;;0.10;;
61373;SDS011;47242;48.158;-1.586;2024-01-30T09:01:24;0.10;;;0.10;;
61373;SDS011;47242;48.158;-1.586;2024-01-30T09:03:50;0.10;;;0.10;;
61373;SDS011;47242;48.158;-1.586;2024-01-30T09:06:16;0.10;;;0.10;;
61373;SDS011;47242;48.158;-1.586;2024-01-30T09:08:42;0.10;;;0.10;;
61373;SDS011;47242;48.158;-1.586;2024-01-30T09:11:14;0.10;;;0.10;;
61373;SDS011;47242;48.158;-1.586;2024-01-30T09:13:40;0.10;;;0.10;;
61373;SDS011;47242;48.158;-1.586;2024-01-30T09:16:06;0.10;;;0.10;;
61373;SDS011;47242;48.158;-1.586;2024-01-30T09:18:32;0.10;;;0.10;;
61373;SDS011;47242;48.158;-1.586;2024-01-30T09:20:58;0.20;;;0.20;;
61373;SDS011;47242;48.158;-1.586;2024-01-30T09:23:24;0.80;;;0.80;;
61373;SDS011;47242;48.158;-1.586;2024-01-30T09:25:50;1.70;;;1.60;;
61373;SDS011;47242;48.158;-1.586;2024-01-30T09:28:17;4.10;;;3.80;;
61373;SDS011;47242;48.158;-1.586;2024-01-30T09:30:42;1.75;;;1.65;;
61373;SDS011;47242;48.158;-1.586;2024-01-30T09:33:08;8.23;;;7.82;;
61373;SDS011;47242;48.158;-1.586;2024-01-30T09:35:34;10.10;;;9.60;;
61373;SDS011;47242;48.158;-1.586;2024-01-30T09:38:01;11.50;;;11.00;;
61373;SDS011;47242;48.158;-1.586;2024-01-30T09:40:27;13.13;;;12.52;;
61373;SDS011;47242;48.158;-1.586;2024-01-30T09:42:53;11.50;;;11.00;;
61373;SDS011;47242;48.158;-1.586;2024-01-30T09:45:21;10.20;;;9.70;;
61373;SDS011;47242;48.158;-1.586;2024-01-30T09:47:50;9.93;;;9.43;;
61373;SDS011;47242;48.158;-1.586;2024-01-30T09:50:15;9.50;;;9.10;;
61373;SDS011;47242;48.158;-1.586;2024-01-30T09:52:42;9.23;;;8.82;;
61373;SDS011;47242;48.158;-1.586;2024-01-30T09:55:12;5.32;;;5.03;;
61373;SDS011;47242;48.158;-1.586;2024-01-30T09:57:38;6.40;;;6.00;;
61373;SDS011;47242;48.158;-1.586;2024-01-30T10:00:04;0.20;;;0.20;;
61373;SDS011;47242;48.158;-1.586;2024-01-30T10:02:33;1.27;;;1.23;;
61373;SDS011;47242;48.158;-1.586;2024-01-30T10:05:00;0.00;;;0.00;;
61373;SDS011;47242;48.158;-1.586;2024-01-30T10:07:25;0.00;;;0.00;;
61373;SDS011;47242;48.158;-1.586;2024-01-30T10:09:52;0.10;;;0.10;;
61373;SDS011;47242;48.158;-1.586;2024-01-30T10:12:18;0.00;;;0.00;;
61373;SDS011;47242;48.158;-1.586;2024-01-30T10:14:44;0.10;;;0.10;;
61373;SDS011;47242;48.158;-1.586;2024-01-30T10:17:10;0.10;;;0.10;;
61373;SDS011;47242;48.158;-1.586;2024-01-30T10:19:37;0.08;;;0.08;;
61373;SDS011;47242;48.158;-1.586;2024-01-30T10:22:03;0.10;;;0.10;;
61373;SDS011;47242;48.158;-1.586;2024-01-30T10:24:29;0.00;;;0.00;;
61373;SDS011;47242;48.158;-1.586;2024-01-30T10:26:55;0.10;;;0.10;;
61373;SDS011;47242;48.158;-1.586;2024-01-30T10:29:21;0.10;;;0.10;;
61373;SDS011;47242;48.158;-1.586;2024-01-30T10:31:57;0.00;;;0.00;;
61373;SDS011;47242;48.158;-1.586;2024-01-30T10:34:23;0.00;;;0.00;;
61373;SDS011;47242;48.158;-1.586;2024-01-30T10:36:50;0.10;;;0.10;;
61373;SDS011;47242;48.158;-1.586;2024-01-30T10:39:20;0.10;;;0.10;;
61373;SDS011;47242;48.158;-1.586;2024-01-30T10:41:48;0.10;;;0.10;;
61373;SDS011;47242;48.158;-1.586;2024-01-30T10:44:21;0.10;;;0.10;;
61373;SDS011;47242;48.158;-1.586;2024-01-30T10:47:01;0.10;;;0.10;;
61373;SDS011;47242;48.158;-1.586;2024-01-30T10:49:31;0.10;;;0.10;;
61373;SDS011;47242;48.158;-1.586;2024-01-30T10:51:58;0.10;;;0.10;;
61373;SDS011;47242;48.158;-1.586;2024-01-30T10:54:24;0.10;;;0.10;;
61373;SDS011;47242;48.158;-1.586;2024-01-30T10:56:51;0.10;;;0.10;;
61373;SDS011;47242;48.158;-1.586;2024-01-30T10:59:18;0.10;;;0.10;;
61373;SDS011;47242;48.158;-1.586;2024-01-30T11:01:45;0.10;;;0.10;;
61373;SDS011;47242;48.158;-1.586;2024-01-30T11:04:11;0.10;;;0.10;;
61373;SDS011;47242;48.158;-1.586;2024-01-30T11:06:43;0.10;;;0.10;;
61373;SDS011;47242;48.158;-1.586;2024-01-30T11:09:10;0.10;;;0.10;;
61373;SDS011;47242;48.158;-1.586;2024-01-30T11:14:26;0.10;;;0.10;;
61373;SDS011;47242;48.158;-1.586;2024-01-30T11:16:56;0.10;;;0.10;;
61373;SDS011;47242;48.158;-1.586;2024-01-30T11:19:26;0.10;;;0.10;;
61373;SDS011;47242;48.158;-1.586;2024-01-30T11:21:52;0.10;;;0.10;;
61373;SDS011;47242;48.158;-1.586;2024-01-30T11:24:28;0.10;;;0.10;;
61373;SDS011;47242;48.158;-1.586;2024-01-30T11:26:57;0.10;;;0.10;;
61373;SDS011;47242;48.158;-1.586;2024-01-30T11:29:27;0.10;;;0.10;;
61373;SDS011;47242;48.158;-1.586;2024-01-30T11:31:57;0.10;;;0.10;;
61373;SDS011;47242;48.158;-1.586;2024-01-30T11:34:23;0.10;;;0.10;;
61373;SDS011;47242;48.158;-1.586;2024-01-30T11:36:55;0.10;;;0.10;;
61373;SDS011;47242;48.158;-1.586;2024-01-30T11:39:25;0.10;;;0.10;;
61373;SDS011;47242;48.158;-1.586;2024-01-30T11:41:51;0.10;;;0.10;;
61373;SDS011;47242;48.158;-1.586;2024-01-30T11:44:18;0.10;;;0.10;;
61373;SDS011;47242;48.158;-1.586;2024-01-30T11:46:48;0.10;;;0.10;;
61373;SDS011;47242;48.158;-1.586;2024-01-30T11:49:14;0.10;;;0.10;;
61373;SDS011;47242;48.158;-1.586;2024-01-30T11:51:40;0.10;;;0.10;;
61373;SDS011;47242;48.158;-1.586;2024-01-30T11:54:07;0.10;;;0.10;;
61373;SDS011;47242;48.158;-1.586;2024-01-30T11:56:33;0.10;;;0.10;;
61373;SDS011;47242;48.158;-1.586;2024-01-30T11:58:58;0.10;;;0.10;;
61373;SDS011;47242;48.158;-1.586;2024-01-30T12:01:25;0.10;;;0.10;;
61373;SDS011;47242;48.158;-1.586;2024-01-30T12:03:51;0.10;;;0.10;;
61373;SDS011;47242;48.158;-1.586;2024-01-30T12:06:17;0.10;;;0.10;;
61373;SDS011;47242;48.158;-1.586;2024-01-30T12:08:54;0.10;;;0.10;;
61373;SDS011;47242;48.158;-1.586;2024-01-30T12:11:22;0.10;;;0.10;;
61373;SDS011;47242;48.158;-1.586;2024-01-30T12:13:48;0.10;;;0.10;;
61373;SDS011;47242;48.158;-1.586;2024-01-30T12:16:15;0.10;;;0.10;;
61373;SDS011;47242;48.158;-1.586;2024-01-30T12:18:41;0.10;;;0.10;;
61373;SDS011;47242;48.158;-1.586;2024-01-30T12:21:07;0.10;;;0.10;;
61373;SDS011;47242;48.158;-1.586;2024-01-30T12:23:34;0.10;;;0.10;;
61373;SDS011;47242;48.158;-1.586;2024-01-30T12:26:00;0.10;;;0.10;;
61373;SDS011;47242;48.158;-1.586;2024-01-30T12:28:28;0.10;;;0.10;;
61373;SDS011;47242;48.158;-1.586;2024-01-30T12:30:56;0.10;;;0.10;;
61373;SDS011;47242;48.158;-1.586;2024-01-30T12:33:26;0.10;;;0.10;;
61373;SDS011;47242;48.158;-1.586;2024-01-30T12:35:53;0.10;;;0.10;;
61373;SDS011;47242;48.158;-1.586;2024-01-30T12:38:19;0.10;;;0.10;;
61373;SDS011;47242;48.158;-1.586;2024-01-30T12:40:44;0.10;;;0.10;;
61373;SDS011;47242;48.158;-1.586;2024-01-30T12:43:11;0.10;;;0.10;;
61373;SDS011;47242;48.158;-1.586;2024-01-30T12:45:39;0.10;;;0.10;;
61373;SDS011;47242;48.158;-1.586;2024-01-30T12:48:06;0.10;;;0.10;;
61373;SDS011;47242;48.158;-1.586;2024-01-30T12:50:32;0.10;;;0.10;;
61373;SDS011;47242;48.158;-1.586;2024-01-30T12:52:57;0.10;;;0.10;;
61373;SDS011;47242;48.158;-1.586;2024-01-30T12:55:23;0.10;;;0.10;;
61373;SDS011;47242;48.158;-1.586;2024-01-30T12:57:49;0.10;;;0.10;;
61373;SDS011;47242;48.158;-1.586;2024-01-30T13:00:15;0.10;;;0.10;;
61373;SDS011;47242;48.158;-1.586;2024-01-30T13:02:42;0.10;;;0.10;;
61373;SDS011;47242;48.158;-1.586;2024-01-30T13:05:10;0.10;;;0.10;;
61373;SDS011;47242;48.158;-1.586;2024-01-30T13:07:35;0.10;;;0.10;;
61373;SDS011;47242;48.158;-1.586;2024-01-30T13:10:01;0.10;;;0.10;;
61373;SDS011;47242;48.158;-1.586;2024-01-30T13:12:29;0.10;;;0.10;;
61373;SDS011;47242;48.158;-1.586;2024-01-30T13:14:55;0.10;;;0.10;;
61373;SDS011;47242;48.158;-1.586;2024-01-30T13:17:21;0.10;;;0.10;;
61373;SDS011;47242;48.158;-1.586;2024-01-30T13:19:46;0.10;;;0.10;;
61373;SDS011;47242;48.158;-1.586;2024-01-30T13:22:14;0.10;;;0.10;;
61373;SDS011;47242;48.158;-1.586;2024-01-30T13:24:40;0.10;;;0.10;;
61373;SDS011;47242;48.158;-1.586;2024-01-30T13:27:06;0.10;;;0.10;;
61373;SDS011;47242;48.158;-1.586;2024-01-30T13:29:32;0.10;;;0.10;;
61373;SDS011;47242;48.158;-1.586;2024-01-30T13:31:58;0.10;;;0.10;;
61373;SDS011;47242;48.158;-1.586;2024-01-30T13:34:23;0.10;;;0.10;;
61373;SDS011;47242;48.158;-1.586;2024-01-30T13:36:49;0.10;;;0.10;;
61373;SDS011;47242;48.158;-1.586;2024-01-30T13:39:15;0.10;;;0.10;;
61373;SDS011;47242;48.158;-1.586;2024-01-30T13:41:41;0.10;;;0.10;;
61373;SDS011;47242;48.158;-1.586;2024-01-30T13:44:07;0.10;;;0.10;;
61373;SDS011;47242;48.158;-1.586;2024-01-30T13:46:34;0.10;;;0.10;;
61373;SDS011;47242;48.158;-1.586;2024-01-30T13:49:00;0.17;;;0.17;;
61373;SDS011;47242;48.158;-1.586;2024-01-30T13:51:26;0.10;;;0.10;;
61373;SDS011;47242;48.158;-1.586;2024-01-30T13:53:52;0.10;;;0.10;;
61373;SDS011;47242;48.158;-1.586;2024-01-30T13:56:19;0.10;;;0.10;;
61373;SDS011;47242;48.158;-1.586;2024-01-30T13:58:45;0.10;;;0.10;;
61373;SDS011;47242;48.158;-1.586;2024-01-30T14:01:13;0.10;;;0.10;;
61373;SDS011;47242;48.158;-1.586;2024-01-30T14:03:38;0.10;;;0.10;;
61373;SDS011;47242;48.158;-1.586;2024-01-30T14:06:04;0.10;;;0.10;;
61373;SDS011;47242;48.158;-1.586;2024-01-30T14:08:30;0.10;;;0.10;;
61373;SDS011;47242;48.158;-1.586;2024-01-30T14:10:56;0.10;;;0.10;;
61373;SDS011;47242;48.158;-1.586;2024-01-30T14:13:22;0.10;;;0.10;;
61373;SDS011;47242;48.158;-1.586;2024-01-30T14:15:49;0.10;;;0.10;;
61373;SDS011;47242;48.158;-1.586;2024-01-30T14:18:14;0.10;;;0.10;;
61373;SDS011;47242;48.158;-1.586;2024-01-30T14:20:40;0.10;;;0.10;;
61373;SDS011;47242;48.158;-1.586;2024-01-30T14:23:06;0.10;;;0.10;;
61373;SDS011;47242;48.158;-1.586;2024-01-30T14:25:32;0.10;;;0.10;;
61373;SDS011;47242;48.158;-1.586;2024-01-30T14:27:57;0.10;;;0.10;;
61373;SDS011;47242;48.158;-1.586;2024-01-30T14:30:23;0.10;;;0.10;;
61373;SDS011;47242;48.158;-1.586;2024-01-30T14:32:49;0.10;;;0.10;;
61373;SDS011;47242;48.158;-1.586;2024-01-30T14:35:15;0.10;;;0.10;;
61373;SDS011;47242;48.158;-1.586;2024-01-30T14:37:41;0.10;;;0.10;;
61373;SDS011;47242;48.158;-1.586;2024-01-30T14:40:07;0.10;;;0.10;;
61373;SDS011;47242;48.158;-1.586;2024-01-30T14:42:33;0.10;;;0.10;;
61373;SDS011;47242;48.158;-1.586;2024-01-30T14:44:59;0.10;;;0.10;;
61373;SDS011;47242;48.158;-1.586;2024-01-30T14:47:25;0.10;;;0.10;;
61373;SDS011;47242;48.158;-1.586;2024-01-30T14:49:51;0.10;;;0.10;;
61373;SDS011;47242;48.158;-1.586;2024-01-30T14:52:17;0.10;;;0.10;;
61373;SDS011;47242;48.158;-1.586;2024-01-30T14:54:43;0.10;;;0.10;;
61373;SDS011;47242;48.158;-1.586;2024-01-30T14:57:09;0.10;;;0.10;;
61373;SDS011;47242;48.158;-1.586;2024-01-30T14:59:35;0.00;;;0.00;;
61373;SDS011;47242;48.158;-1.586;2024-01-30T15:02:01;0.00;;;0.00;;
61373;SDS011;47242;48.158;-1.586;2024-01-30T15:04:27;0.10;;;0.10;;
61373;SDS011;47242;48.158;-1.586;2024-01-30T15:06:53;0.10;;;0.10;;
61373;SDS011;47242;48.158;-1.586;2024-01-30T15:09:19;0.10;;;0.10;;
61373;SDS011;47242;48.158;-1.586;2024-01-30T15:11:47;0.10;;;0.10;;
61373;SDS011;47242;48.158;-1.586;2024-01-30T15:14:13;0.10;;;0.10;;
61373;SDS011;47242;48.158;-1.586;2024-01-30T15:16:39;0.10;;;0.10;;
61373;SDS011;47242;48.158;-1.586;2024-01-30T15:19:05;0.00;;;0.00;;
61373;SDS011;47242;48.158;-1.586;2024-01-30T15:21:31;0.10;;;0.10;;
61373;SDS011;47242;48.158;-1.586;2024-01-30T15:23:57;0.00;;;0.00;;
61373;SDS011;47242;48.158;-1.586;2024-01-30T15:26:23;0.10;;;0.10;;
61373;SDS011;47242;48.158;-1.586;2024-01-30T15:28:49;0.10;;;0.10;;
61373;SDS011;47242;48.158;-1.586;2024-01-30T15:31:15;0.10;;;0.10;;
61373;SDS011;47242;48.158;-1.586;2024-01-30T15:33:41;0.10;;;0.10;;
61373;SDS011;47242;48.158;-1.586;2024-01-30T15:36:07;0.10;;;0.10;;
61373;SDS011;47242;48.158;-1.586;2024-01-30T15:38:34;0.10;;;0.10;;
61373;SDS011;47242;48.158;-1.586;2024-01-30T15:41:00;0.10;;;0.10;;
61373;SDS011;47242;48.158;-1.586;2024-01-30T15:43:26;0.10;;;0.10;;
61373;SDS011;47242;48.158;-1.586;2024-01-30T15:45:52;0.10;;;0.10;;
61373;SDS011;47242;48.158;-1.586;2024-01-30T15:48:18;0.00;;;0.00;;
61373;SDS011;47242;48.158;-1.586;2024-01-30T15:50:44;0.10;;;0.10;;
61373;SDS011;47242;48.158;-1.586;2024-01-30T15:53:10;0.10;;;0.10;;
61373;SDS011;47242;48.158;-1.586;2024-01-30T15:55:35;0.10;;;0.10;;
61373;SDS011;47242;48.158;-1.586;2024-01-30T15:58:01;0.00;;;0.00;;
61373;SDS011;47242;48.158;-1.586;2024-01-30T16:00:28;0.00;;;0.00;;
61373;SDS011;47242;48.158;-1.586;2024-01-30T16:02:54;0.00;;;0.00;;
61373;SDS011;47242;48.158;-1.586;2024-01-30T16:05:19;0.10;;;0.10;;
61373;SDS011;47242;48.158;-1.586;2024-01-30T16:07:45;0.10;;;0.10;;
61373;SDS011;47242;48.158;-1.586;2024-01-30T16:10:11;0.10;;;0.10;;
61373;SDS011;47242;48.158;-1.586;2024-01-30T16:12:41;0.00;;;0.00;;
61373;SDS011;47242;48.158;-1.586;2024-01-30T16:15:10;0.10;;;0.10;;
61373;SDS011;47242;48.158;-1.586;2024-01-30T16:17:36;0.10;;;0.10;;
61373;SDS011;47242;48.158;-1.586;2024-01-30T16:20:02;0.08;;;0.08;;
61373;SDS011;47242;48.158;-1.586;2024-01-30T16:22:28;0.10;;;0.10;;
61373;SDS011;47242;48.158;-1.586;2024-01-30T16:24:54;0.00;;;0.00;;
61373;SDS011;47242;48.158;-1.586;2024-01-30T16:27:19;0.03;;;0.03;;
61373;SDS011;47242;48.158;-1.586;2024-01-30T16:29:45;0.10;;;0.10;;
61373;SDS011;47242;48.158;-1.586;2024-01-30T16:32:10;0.00;;;0.00;;
61373;SDS011;47242;48.158;-1.586;2024-01-30T16:34:36;0.00;;;0.00;;
61373;SDS011;47242;48.158;-1.586;2024-01-30T16:37:02;0.10;;;0.10;;
61373;SDS011;47242;48.158;-1.586;2024-01-30T16:39:27;0.10;;;0.10;;
61373;SDS011;47242;48.158;-1.586;2024-01-30T16:41:53;0.00;;;0.00;;
61373;SDS011;47242;48.158;-1.586;2024-01-30T16:44:19;0.00;;;0.00;;
61373;SDS011;47242;48.158;-1.586;2024-01-30T16:46:44;0.10;;;0.10;;
61373;SDS011;47242;48.158;-1.586;2024-01-30T16:49:10;0.10;;;0.10;;
61373;SDS011;47242;48.158;-1.586;2024-01-30T16:51:35;0.10;;;0.10;;
61373;SDS011;47242;48.158;-1.586;2024-01-30T16:54:01;0.08;;;0.08;;
61373;SDS011;47242;48.158;-1.586;2024-01-30T16:56:27;0.10;;;0.10;;
61373;SDS011;47242;48.158;-1.586;2024-01-30T16:58:52;0.10;;;0.10;;
61373;SDS011;47242;48.158;-1.586;2024-01-30T17:01:18;0.10;;;0.10;;
61373;SDS011;47242;48.158;-1.586;2024-01-30T17:03:43;0.00;;;0.00;;
61373;SDS011;47242;48.158;-1.586;2024-01-30T17:06:12;0.08;;;0.08;;
61373;SDS011;47242;48.158;-1.586;2024-01-30T17:08:38;0.10;;;0.10;;
61373;SDS011;47242;48.158;-1.586;2024-01-30T17:11:04;0.10;;;0.10;;
61373;SDS011;47242;48.158;-1.586;2024-01-30T17:13:30;0.10;;;0.10;;
61373;SDS011;47242;48.158;-1.586;2024-01-30T17:15:55;0.10;;;0.10;;
61373;SDS011;47242;48.158;-1.586;2024-01-30T17:18:22;0.00;;;0.00;;
61373;SDS011;47242;48.158;-1.586;2024-01-30T17:20:48;0.10;;;0.10;;
61373;SDS011;47242;48.158;-1.586;2024-01-30T17:23:13;0.10;;;0.10;;
61373;SDS011;47242;48.158;-1.586;2024-01-30T17:25:55;0.05;;;0.05;;
61373;SDS011;47242;48.158;-1.586;2024-01-30T17:28:29;0.08;;;0.08;;
61373;SDS011;47242;48.158;-1.586;2024-01-30T17:30:58;0.00;;;0.00;;
61373;SDS011;47242;48.158;-1.586;2024-01-30T17:33:33;0.05;;;0.05;;
61373;SDS011;47242;48.158;-1.586;2024-01-30T17:36:16;0.10;;;0.10;;
61373;SDS011;47242;48.158;-1.586;2024-01-30T17:38:44;0.10;;;0.10;;
61373;SDS011;47242;48.158;-1.586;2024-01-30T17:41:10;0.10;;;0.10;;
61373;SDS011;47242;48.158;-1.586;2024-01-30T17:43:35;0.10;;;0.10;;
61373;SDS011;47242;48.158;-1.586;2024-01-30T17:46:01;0.10;;;0.10;;
61373;SDS011;47242;48.158;-1.586;2024-01-30T17:48:29;0.10;;;0.10;;
61373;SDS011;47242;48.158;-1.586;2024-01-30T17:50:54;0.00;;;0.00;;
61373;SDS011;47242;48.158;-1.586;2024-01-30T17:53:20;0.10;;;0.10;;
61373;SDS011;47242;48.158;-1.586;2024-01-30T17:55:46;0.10;;;0.10;;
61373;SDS011;47242;48.158;-1.586;2024-01-30T17:58:11;0.10;;;0.10;;
61373;SDS011;47242;48.158;-1.586;2024-01-30T18:00:37;0.10;;;0.10;;
61373;SDS011;47242;48.158;-1.586;2024-01-30T18:03:02;0.10;;;0.10;;
61373;SDS011;47242;48.158;-1.586;2024-01-30T18:05:29;0.10;;;0.10;;
61373;SDS011;47242;48.158;-1.586;2024-01-30T18:07:55;0.10;;;0.10;;
61373;SDS011;47242;48.158;-1.586;2024-01-30T18:10:20;0.08;;;0.08;;
61373;SDS011;47242;48.158;-1.586;2024-01-30T18:12:46;0.10;;;0.10;;
61373;SDS011;47242;48.158;-1.586;2024-01-30T18:15:15;0.10;;;0.10;;
61373;SDS011;47242;48.158;-1.586;2024-01-30T18:18:25;0.10;;;0.10;;
61373;SDS011;47242;48.158;-1.586;2024-01-30T18:20:51;0.10;;;0.10;;
61373;SDS011;47242;48.158;-1.586;2024-01-30T18:23:17;0.10;;;0.10;;
61373;SDS011;47242;48.158;-1.586;2024-01-30T18:25:45;0.10;;;0.10;;
61373;SDS011;47242;48.158;-1.586;2024-01-30T18:28:17;0.10;;;0.10;;
61373;SDS011;47242;48.158;-1.586;2024-01-30T18:30:42;0.10;;;0.10;;
61373;SDS011;47242;48.158;-1.586;2024-01-30T18:33:08;0.10;;;0.10;;
61373;SDS011;47242;48.158;-1.586;2024-01-30T18:35:36;0.10;;;0.10;;
61373;SDS011;47242;48.158;-1.586;2024-01-30T18:38:02;0.10;;;0.10;;
61373;SDS011;47242;48.158;-1.586;2024-01-30T18:40:28;0.10;;;0.10;;
61373;SDS011;47242;48.158;-1.586;2024-01-30T18:42:54;0.00;;;0.00;;
61373;SDS011;47242;48.158;-1.586;2024-01-30T18:45:20;0.10;;;0.10;;
61373;SDS011;47242;48.158;-1.586;2024-01-30T18:47:46;0.10;;;0.10;;
61373;SDS011;47242;48.158;-1.586;2024-01-30T18:50:11;0.10;;;0.10;;
61373;SDS011;47242;48.158;-1.586;2024-01-30T18:52:37;0.10;;;0.10;;
61373;SDS011;47242;48.158;-1.586;2024-01-30T18:55:03;0.10;;;0.10;;
61373;SDS011;47242;48.158;-1.586;2024-01-30T18:57:29;0.00;;;0.00;;
61373;SDS011;47242;48.158;-1.586;2024-01-30T18:59:54;0.10;;;0.10;;
61373;SDS011;47242;48.158;-1.586;2024-01-30T19:02:28;0.10;;;0.10;;
61373;SDS011;47242;48.158;-1.586;2024-01-30T19:04:57;0.10;;;0.10;;
61373;SDS011;47242;48.158;-1.586;2024-01-30T19:07:23;0.10;;;0.10;;
61373;SDS011;47242;48.158;-1.586;2024-01-30T19:09:50;0.10;;;0.10;;
61373;SDS011;47242;48.158;-1.586;2024-01-30T19:12:17;0.10;;;0.10;;
61373;SDS011;47242;48.158;-1.586;2024-01-30T19:14:43;0.13;;;0.10;;
61373;SDS011;47242;48.158;-1.586;2024-01-30T19:17:09;0.10;;;0.10;;
61373;SDS011;47242;48.158;-1.586;2024-01-30T19:19:38;0.25;;;0.10;;
61373;SDS011;47242;48.158;-1.586;2024-01-30T19:22:05;0.10;;;0.10;;
61373;SDS011;47242;48.158;-1.586;2024-01-30T19:27:31;0.10;;;0.10;;
61373;SDS011;47242;48.158;-1.586;2024-01-30T19:30:35;0.10;;;0.10;;
61373;SDS011;47242;48.158;-1.586;2024-01-30T19:33:01;0.10;;;0.10;;
61373;SDS011;47242;48.158;-1.586;2024-01-30T19:35:44;0.10;;;0.10;;
61373;SDS011;47242;48.158;-1.586;2024-01-30T19:39:04;0.10;;;0.10;;
61373;SDS011;47242;48.158;-1.586;2024-01-30T19:41:39;0.10;;;0.10;;
61373;SDS011;47242;48.158;-1.586;2024-01-30T19:44:31;0.10;;;0.10;;
61373;SDS011;47242;48.158;-1.586;2024-01-30T19:46:57;0.10;;;0.10;;
61373;SDS011;47242;48.158;-1.586;2024-01-30T19:49:30;0.10;;;0.10;;
61373;SDS011;47242;48.158;-1.586;2024-01-30T19:51:59;0.10;;;0.10;;
61373;SDS011;47242;48.158;-1.586;2024-01-30T19:54:29;0.10;;;0.10;;
61373;SDS011;47242;48.158;-1.586;2024-01-30T19:56:55;0.10;;;0.10;;
61373;SDS011;47242;48.158;-1.586;2024-01-30T19:59:21;0.10;;;0.10;;
61373;SDS011;47242;48.158;-1.586;2024-01-30T20:01:47;0.10;;;0.10;;
61373;SDS011;47242;48.158;-1.586;2024-01-30T20:04:12;0.10;;;0.10;;
61373;SDS011;47242;48.158;-1.586;2024-01-30T20:06:39;0.10;;;0.10;;
61373;SDS011;47242;48.158;-1.586;2024-01-30T20:09:04;0.10;;;0.10;;